John Murtha Johnstown Cambria County Airport
KJST : now visible

Airfield :











YOU CAN JOIN US ON...

 
LOGIN :

Register | Disclaimer

   EN    FR    IT 

 









Legend :    VFR   Marginal VFR   IFR   Intensive IFR   Very Intensive IFR
Visi :
Ceiling :
>= 8 km
>= 3000ft
5 to 8 km
1000 to 3000 ft
1500m to 5 km
500 to 1000 ft
800 to 1500m
200 to 500 ft
< 800m
< 200 ft
Symbols :   Thunderstorms  Fog  Heavy snow  Heavy precipitations  Wind > 20 kt







- Airport Elevation : 2284 ft
- IATA code : JST


KJST - John Murtha Johnstown Cambria County

CURRENT METAR :
  • 221154Z AUTO 33006KT 10SM OVC022 07/05 A3021 RMK AO2 SLP239 T00670050 10067 20050 53017

EXPIRED METARs :
  • 221054Z AUTO 31006KT 10SM OVC024 06/04 A3018 RMK AO2 SLP229 T00610044
  • 220954Z AUTO 32003KT 10SM OVC026 07/04 A3016 RMK AO2 SLP222 T00670044

TAF KJST
Valid from the 22 at 12:00 until the 23 at 12:00 UTC


221134Z 2212/2312 31006KT P6SM OVC024
FM221700 31006KT P6SM SCT250
KZOB FIR / North America



MET'MAP, your aeronautical weather chart ! - Copyright ORBIFLY December 2007 - Disclaimer

ORBIFLY MET'MAP TEAM :

Programming & Development : Alexandra Zaïnal
Concept & Development : Baudouin d'Aumeries
Co-Development & Prog : Marc-Olivier Méhu
Technical & hardware support : Manuel Goepfert

Contact : metmap@orbifly.com




SOURCES & CREDITS :

   NOAA       Earth
Advisory